Aviation Digital Data Service (ADDS)

Output produced by METARs form (2048 UTC 20 August 2019)
found at http://www.aviationweather.gov/metar/data/
 
Forecast for: KIDA (IDAHO FALLS , ID, US)
Text: KIDA 201724Z 2018/2118 35005KT P6SM FEW150 FEW200
Forecast period: 1800 to 2000 UTC 20 August 2019
Forecast type: FROM: standard forecast or significant change
Winds: from the N (350 degrees) at 6 MPH (5 knots; 2.6 m/s)
Visibility: 6 or more miles 10+ km)
Ceiling: at least 12,000 feet AGL
Clouds: few clouds at 15000 feet AGL
few clouds at 20000 feet AGL
Weather: no significant weather forecast for this period
Text: FM202000 20008KT P6SM FEW150
Forecast period: 2000 UTC 20 August 2019 to 0300 UTC 21 August 2019
Forecast type: FROM: standard forecast or significant change
Winds: from the SSW (200 degrees) at 9 MPH (8 knots; 4.1 m/s)
Visibility: 6 or more miles 10+ km)
Ceiling: at least 12,000 feet AGL
Clouds: few clouds at 15000 feet AGL
Weather: no significant weather forecast for this period
Text: FM210300 VRB05KT P6SM SKC
Forecast period: 0300 to 1800 UTC 21 August 2019
Forecast type: FROM: standard forecast or significant change
Winds: variable direction winds at 6 MPH (5 knots; 2.6 m/s)
Visibility: 6 or more miles 10+ km)
Clouds: clear skies
Weather: no significant weather forecast for this period